createdAt,value
2023-10-03T00:00:12.777Z,7.88
2023-10-03T00:03:21.544Z,21.25
2023-10-03T00:06:27.178Z,23.25
2023-10-03T00:09:33.888Z,26.35
2023-10-03T00:12:39.205Z,13.07
2023-10-03T00:15:45.994Z,10.82
2023-10-03T00:18:51.393Z,8.10
2023-10-03T00:21:57.182Z,7.60
2023-10-03T00:25:03.116Z,6.57
2023-10-03T00:28:13.614Z,14.88
2023-10-03T00:31:19.201Z,10.05
2023-10-03T00:34:25.277Z,7.28
2023-10-03T00:37:31.109Z,5.53
2023-10-03T00:40:40.048Z,8.60
2023-10-03T00:43:45.656Z,5.68
2023-10-03T00:46:52.541Z,5.20
2023-10-03T00:49:58.168Z,5.95
2023-10-03T00:53:05.448Z,4.85
2023-10-03T00:56:12.570Z,4.65
2023-10-03T00:59:18.530Z,5.80
2023-10-03T01:02:27.016Z,4.90
2023-10-03T01:05:32.936Z,6.78
2023-10-03T01:08:38.951Z,6.82
2023-10-03T01:11:46.872Z,7.13
2023-10-03T01:14:36.364Z,6.43
2023-10-03T01:17:42.571Z,9.13
2023-10-03T01:20:48.042Z,7.00
2023-10-03T01:23:57.041Z,5.20
2023-10-03T01:27:02.896Z,5.75
2023-10-03T01:30:08.451Z,5.40
2023-10-03T01:33:17.209Z,6.05
2023-10-03T01:36:23.280Z,5.03
2023-10-03T01:39:29.185Z,5.82
2023-10-03T01:42:35.141Z,5.35
2023-10-03T01:45:44.013Z,7.03
2023-10-03T01:48:49.560Z,6.93
2023-10-03T01:51:55.345Z,6.68
2023-10-03T01:55:04.310Z,9.27
2023-10-03T01:57:55.027Z,7.10
2023-10-03T02:01:01.135Z,8.10
2023-10-03T02:04:06.481Z,5.45
2023-10-03T02:07:12.164Z,5.53
2023-10-03T02:10:17.798Z,6.15
2023-10-03T02:13:24.480Z,5.65
2023-10-03T02:16:12.167Z,6.38
2023-10-03T02:18:58.289Z,6.20
2023-10-03T02:21:44.129Z,9.70
2023-10-03T02:24:31.822Z,8.07
2023-10-03T02:27:18.570Z,8.27
2023-10-03T02:30:13.397Z,7.20
2023-10-03T02:33:09.687Z,8.55
2023-10-03T02:35:56.002Z,10.98
2023-10-03T02:39:02.302Z,19.35
2023-10-03T02:42:09.975Z,10.27
2023-10-03T02:45:17.688Z,13.63
2023-10-03T02:48:36.559Z,11.45
2023-10-03T02:51:43.054Z,8.20
2023-10-03T02:54:50.277Z,12.65
2023-10-03T02:57:58.051Z,8.70
2023-10-03T03:01:22.226Z,9.25
2023-10-03T03:04:27.845Z,7.05
2023-10-03T03:07:35.302Z,8.15
2023-10-03T03:10:41.025Z,8.05
2023-10-03T03:13:49.566Z,15.07
2023-10-03T03:16:54.792Z,10.13
2023-10-03T03:20:02.431Z,13.05
2023-10-03T03:23:09.522Z,8.98
2023-10-03T03:26:15.513Z,9.18
2023-10-03T03:29:21.209Z,11.57
2023-10-03T03:32:27.202Z,10.98
2023-10-03T03:35:35.775Z,14.35
2023-10-03T03:38:41.420Z,7.88
2023-10-03T03:41:46.733Z,9.20
2023-10-03T03:44:52.721Z,8.10
2023-10-03T03:47:40.846Z,10.38
2023-10-03T03:50:46.920Z,11.20
2023-10-03T03:53:53.652Z,9.10
2023-10-03T03:56:59.390Z,12.93
2023-10-03T04:00:05.933Z,9.77
2023-10-03T04:03:21.355Z,11.75
2023-10-03T04:06:26.791Z,12.40
2023-10-03T04:09:32.544Z,12.00
2023-10-03T04:12:39.165Z,15.45
2023-10-03T04:15:45.241Z,12.07
2023-10-03T04:18:52.082Z,12.00
2023-10-03T04:21:59.509Z,13.98
2023-10-03T04:25:05.075Z,68.93
2023-10-03T04:28:15.412Z,31.70
2023-10-03T04:31:20.941Z,22.33
2023-10-03T04:34:27.041Z,14.77
2023-10-03T04:37:32.784Z,11.65
2023-10-03T04:40:42.881Z,12.00
2023-10-03T04:43:49.442Z,12.85
2023-10-03T04:46:58.481Z,17.05
2023-10-03T04:50:04.091Z,13.98
2023-10-03T04:53:11.137Z,14.07
2023-10-03T04:56:16.977Z,13.52
2023-10-03T04:59:23.044Z,22.00
2023-10-03T05:02:32.019Z,19.48
2023-10-03T05:05:42.671Z,15.95
2023-10-03T05:08:48.357Z,21.38
2023-10-03T05:11:54.296Z,22.48
2023-10-03T05:15:03.569Z,20.33
2023-10-03T05:18:10.437Z,16.30
2023-10-03T05:21:17.739Z,12.80
2023-10-03T05:24:05.117Z,15.15
2023-10-03T05:27:12.106Z,12.75
2023-10-03T05:30:18.438Z,13.60
2023-10-03T05:33:28.827Z,14.40
2023-10-03T05:36:39.030Z,18.13
2023-10-03T05:39:27.839Z,11.77
2023-10-03T05:42:34.187Z,16.67
2023-10-03T05:45:21.158Z,15.27
2023-10-03T05:48:07.733Z,15.45
2023-10-03T05:50:56.880Z,11.82
2023-10-03T05:53:45.815Z,16.30
2023-10-03T05:56:32.090Z,16.50
2023-10-03T05:59:17.546Z,17.35
2023-10-03T06:02:26.907Z,16.35
2023-10-03T06:05:33.162Z,17.05
2023-10-03T06:08:38.809Z,18.27
2023-10-03T06:11:46.314Z,19.45
2023-10-03T06:14:51.783Z,16.10
2023-10-03T06:17:59.092Z,18.35
2023-10-03T06:21:05.259Z,12.23
2023-10-03T06:23:52.281Z,12.18
2023-10-03T06:26:58.323Z,20.45
2023-10-03T06:30:06.988Z,17.88
2023-10-03T06:33:13.264Z,20.33
2023-10-03T06:36:19.186Z,13.20
2023-10-03T06:39:25.120Z,15.95
2023-10-03T06:42:10.618Z,18.65
2023-10-03T06:44:56.341Z,14.13
2023-10-03T06:48:05.400Z,19.08
2023-10-03T06:51:12.153Z,14.38
2023-10-03T06:54:17.719Z,19.33
2023-10-03T06:57:24.125Z,20.08
2023-10-03T07:00:32.041Z,15.88
2023-10-03T07:03:37.725Z,17.05
2023-10-03T07:06:44.280Z,18.05
2023-10-03T07:09:52.862Z,21.35
2023-10-03T07:12:58.632Z,17.25
2023-10-03T07:16:05.250Z,17.63
2023-10-03T07:19:12.031Z,11.40
2023-10-03T07:22:18.327Z,20.45
2023-10-03T07:25:25.619Z,15.60
2023-10-03T07:28:33.304Z,19.17
2023-10-03T07:31:39.066Z,11.55
2023-10-03T07:34:45.096Z,18.13
2023-10-03T07:37:51.037Z,14.75
2023-10-03T07:40:57.126Z,15.85
2023-10-03T07:44:02.939Z,21.80
2023-10-03T07:47:08.538Z,16.92
2023-10-03T07:50:14.014Z,17.85
2023-10-03T07:53:21.384Z,18.58
2023-10-03T07:56:35.930Z,25.58
2023-10-03T07:59:41.311Z,24.88
2023-10-03T08:02:49.880Z,15.48
2023-10-03T08:05:59.378Z,19.08
2023-10-03T08:09:05.354Z,29.95
2023-10-03T08:11:53.404Z,19.35
2023-10-03T08:15:00.582Z,18.52
2023-10-03T08:18:09.149Z,29.20
2023-10-03T08:21:17.812Z,26.67
2023-10-03T08:24:23.999Z,14.38
2023-10-03T08:27:35.641Z,18.70
2023-10-03T08:30:47.601Z,14.60
2023-10-03T08:33:55.957Z,20.42
2023-10-03T08:37:02.116Z,17.02
2023-10-03T08:40:08.845Z,12.07
2023-10-03T08:43:16.099Z,11.15
2023-10-03T08:46:23.088Z,15.18
2023-10-03T08:49:31.348Z,11.63
2023-10-03T08:52:37.078Z,17.45
2023-10-03T08:55:43.134Z,14.93
2023-10-03T08:58:49.230Z,18.35
2023-10-03T09:01:58.596Z,9.32
2023-10-03T09:05:04.494Z,10.32
2023-10-03T09:08:16.660Z,11.40
2023-10-03T09:11:21.818Z,12.27
2023-10-03T09:14:29.738Z,9.82
2023-10-03T09:17:42.480Z,14.10
2023-10-03T09:20:50.563Z,10.23
2023-10-03T09:24:23.047Z,12.38
2023-10-03T09:27:41.162Z,10.98
2023-10-03T09:30:47.617Z,11.70
2023-10-03T09:33:57.669Z,11.23
2023-10-03T09:37:05.895Z,12.63
2023-10-03T09:40:11.889Z,7.75
2023-10-03T09:43:21.013Z,8.15
2023-10-03T09:46:26.995Z,9.23
2023-10-03T09:49:33.221Z,8.15
2023-10-03T09:52:39.292Z,6.38
2023-10-03T09:55:49.242Z,5.30
2023-10-03T09:58:57.156Z,8.35
2023-10-03T10:02:03.429Z,6.70
2023-10-03T10:05:11.253Z,5.82
2023-10-03T10:08:19.931Z,14.18
2023-10-03T10:11:28.908Z,7.80
2023-10-03T10:14:36.393Z,6.72
2023-10-03T10:17:43.600Z,9.88
2023-10-03T10:20:54.849Z,7.13
2023-10-03T10:24:42.254Z,5.95
2023-10-03T10:27:50.523Z,13.85
2023-10-03T10:30:58.619Z,11.57
2023-10-03T10:34:05.384Z,7.80
2023-10-03T10:37:23.807Z,14.02
2023-10-03T10:40:13.681Z,7.32
2023-10-03T10:43:28.135Z,9.13
2023-10-03T10:46:53.227Z,7.82
2023-10-03T10:50:14.040Z,9.50
2023-10-03T10:53:27.860Z,14.93
2023-10-03T10:56:16.406Z,9.50
2023-10-03T10:59:29.445Z,6.50
2023-10-03T11:02:48.691Z,5.93
2023-10-03T11:06:06.056Z,5.85
2023-10-03T11:09:11.870Z,5.43
2023-10-03T11:12:19.230Z,6.82
2023-10-03T11:15:32.277Z,6.88
2023-10-03T11:18:49.650Z,6.55
2023-10-03T11:21:36.705Z,3.35
2023-10-03T11:24:44.775Z,5.00
2023-10-03T11:27:52.211Z,5.07
2023-10-03T11:30:59.320Z,7.55
2023-10-03T11:34:07.339Z,6.18
2023-10-03T11:37:12.615Z,6.85
2023-10-03T11:40:30.541Z,7.25
2023-10-03T11:43:43.068Z,6.47
2023-10-03T11:47:01.087Z,5.15
2023-10-03T11:50:08.059Z,4.07
2023-10-03T11:53:15.731Z,8.18
2023-10-03T11:56:24.569Z,7.95
2023-10-03T11:59:31.025Z,7.65
2023-10-03T12:02:36.528Z,6.20
2023-10-03T12:05:44.093Z,7.43
2023-10-03T12:08:49.996Z,9.65
2023-10-03T12:11:57.451Z,12.75
2023-10-03T12:15:06.449Z,7.25
2023-10-03T12:18:16.396Z,6.43
2023-10-03T12:21:23.387Z,11.77
2023-10-03T12:24:29.147Z,10.20
2023-10-03T12:27:34.839Z,5.95
2023-10-03T12:30:40.678Z,8.05
2023-10-03T12:33:45.908Z,7.80
2023-10-03T12:36:51.766Z,10.32
2023-10-03T12:39:57.471Z,6.93
2023-10-03T12:43:10.638Z,5.95
2023-10-03T12:46:19.617Z,8.82
2023-10-03T12:49:25.976Z,10.02
2023-10-03T12:52:32.114Z,4.85
2023-10-03T12:55:38.284Z,8.13
2023-10-03T12:58:43.684Z,7.10
2023-10-03T13:01:49.277Z,3.17
2023-10-03T13:04:55.014Z,7.30
2023-10-03T13:08:01.112Z,6.35
2023-10-03T13:11:07.421Z,8.93
2023-10-03T13:14:13.464Z,6.40
2023-10-03T13:17:20.172Z,5.13
2023-10-03T13:20:27.571Z,5.75
2023-10-03T13:23:33.368Z,6.38
2023-10-03T13:26:38.876Z,4.88
2023-10-03T13:29:44.518Z,5.63
2023-10-03T13:32:50.306Z,6.80
2023-10-03T13:35:55.678Z,4.45
2023-10-03T13:39:01.471Z,3.67
2023-10-03T13:42:07.525Z,3.28
2023-10-03T13:44:58.256Z,10.05
2023-10-03T13:48:05.110Z,7.30
2023-10-03T13:51:10.807Z,4.25
2023-10-03T13:54:18.221Z,5.20
2023-10-03T13:57:24.421Z,13.00
2023-10-03T14:00:33.841Z,6.97
2023-10-03T14:03:40.806Z,6.18
2023-10-03T14:06:47.270Z,6.15
2023-10-03T14:09:53.113Z,4.85
2023-10-03T14:12:58.682Z,4.35
2023-10-03T14:16:04.242Z,5.18
2023-10-03T14:19:10.493Z,6.43
2023-10-03T14:22:16.098Z,9.82
2023-10-03T14:25:22.530Z,6.20
2023-10-03T14:28:28.105Z,3.33
2023-10-03T14:31:34.012Z,4.03
2023-10-03T14:34:39.807Z,4.05
2023-10-03T14:37:45.275Z,6.18
2023-10-03T14:40:50.808Z,6.55
2023-10-03T14:43:56.464Z,6.57
2023-10-03T14:47:02.005Z,6.63
2023-10-03T14:50:08.121Z,11.15
2023-10-03T14:53:14.224Z,5.53
2023-10-03T14:56:25.545Z,9.90
2023-10-03T14:59:29.040Z,5.78
2023-10-03T15:02:34.947Z,9.98
2023-10-03T15:05:41.398Z,6.50
2023-10-03T15:08:49.970Z,7.07
2023-10-03T15:11:55.624Z,10.98
2023-10-03T15:15:03.915Z,42.55
2023-10-03T15:18:10.166Z,106.88
2023-10-03T15:21:19.184Z,52.75
2023-10-03T15:24:25.440Z,40.05
2023-10-03T15:27:32.575Z,15.73
2023-10-03T15:30:39.125Z,18.73
2023-10-03T15:33:46.402Z,14.18
2023-10-03T15:36:55.139Z,19.33
2023-10-03T15:40:00.778Z,12.40
2023-10-03T15:43:07.919Z,14.13
2023-10-03T15:45:55.103Z,15.23
2023-10-03T15:48:44.462Z,9.65
2023-10-03T15:51:32.046Z,10.00
2023-10-03T15:54:38.728Z,10.52
2023-10-03T15:57:46.211Z,9.93
2023-10-03T16:00:32.254Z,10.57
2023-10-03T16:03:37.780Z,7.78
2023-10-03T16:06:26.842Z,13.40
2023-10-03T16:09:16.356Z,6.18
2023-10-03T16:12:03.057Z,11.93
2023-10-03T16:14:48.515Z,12.43
2023-10-03T16:17:35.181Z,7.47
2023-10-03T16:20:41.378Z,14.13
2023-10-03T16:23:27.895Z,11.93
2023-10-03T16:26:34.436Z,8.10
2023-10-03T16:29:42.016Z,15.38
2023-10-03T16:32:48.190Z,12.60
2023-10-03T16:35:54.417Z,9.43
2023-10-03T16:39:00.330Z,8.35
2023-10-03T16:42:07.106Z,9.15
2023-10-03T16:45:13.775Z,8.05
2023-10-03T16:48:22.803Z,13.30
2023-10-03T16:51:10.037Z,9.93
2023-10-03T16:54:15.972Z,11.85
2023-10-03T16:57:22.138Z,10.90
2023-10-03T17:00:28.518Z,11.48
2023-10-03T17:03:34.989Z,10.88
2023-10-03T17:06:41.415Z,8.27
2023-10-03T17:09:47.546Z,8.75
2023-10-03T17:12:53.993Z,9.50
2023-10-03T17:15:56.252Z,7.88
2023-10-03T17:19:03.380Z,10.88
2023-10-03T17:22:09.838Z,9.82
2023-10-03T17:25:16.177Z,10.10
2023-10-03T17:28:22.809Z,9.50
2023-10-03T17:31:28.685Z,19.17
2023-10-03T17:34:34.471Z,18.10
2023-10-03T17:37:40.412Z,17.38
2023-10-03T17:40:48.818Z,18.73
2023-10-03T17:43:56.454Z,20.88
2023-10-03T17:47:02.261Z,20.73
2023-10-03T17:50:09.034Z,19.90
2023-10-03T17:53:14.312Z,18.42
2023-10-03T17:56:22.010Z,21.23
2023-10-03T17:59:27.342Z,20.10
2023-10-03T18:02:34.068Z,17.02
2023-10-03T18:05:41.988Z,18.27
2023-10-03T18:08:28.506Z,13.00
2023-10-03T18:11:15.365Z,16.27
2023-10-03T18:14:01.726Z,12.45
2023-10-03T18:16:47.484Z,15.68
2023-10-03T18:19:53.460Z,15.45
2023-10-03T18:23:01.058Z,15.50
2023-10-03T18:26:08.349Z,19.55
2023-10-03T18:29:13.748Z,15.77
2023-10-03T18:32:21.767Z,16.63
2023-10-03T18:35:31.321Z,11.82
2023-10-03T18:38:37.048Z,12.30
2023-10-03T18:41:44.095Z,16.48
2023-10-03T18:44:50.225Z,14.63
2023-10-03T18:47:56.552Z,13.73
2023-10-03T18:51:02.488Z,15.18
2023-10-03T18:54:09.480Z,20.50
2023-10-03T18:57:16.321Z,28.98
2023-10-03T19:00:24.023Z,27.38
2023-10-03T19:03:30.580Z,27.05
2023-10-03T19:06:36.299Z,20.27
2023-10-03T19:09:26.549Z,19.52
2023-10-03T19:12:33.205Z,18.13
2023-10-03T19:15:39.168Z,15.88
2023-10-03T19:18:44.738Z,18.90
2023-10-03T19:21:50.412Z,12.05
2023-10-03T19:24:56.564Z,11.50
2023-10-03T19:28:02.539Z,13.93
2023-10-03T19:31:08.466Z,15.65
2023-10-03T19:34:14.248Z,18.35
2023-10-03T19:37:19.884Z,18.30
2023-10-03T19:40:26.063Z,13.27
2023-10-03T19:43:32.239Z,12.10
2023-10-03T19:46:40.184Z,19.13
2023-10-03T19:49:45.955Z,20.55
2023-10-03T19:52:52.795Z,18.02
2023-10-03T19:55:59.417Z,18.45
2023-10-03T19:59:05.249Z,13.50
2023-10-03T20:02:11.132Z,14.20
2023-10-03T20:05:16.913Z,16.48
2023-10-03T20:08:23.691Z,14.55
2023-10-03T20:11:30.450Z,17.25
2023-10-03T20:14:36.180Z,11.30
2023-10-03T20:17:42.194Z,17.90
2023-10-03T20:20:48.061Z,20.73
2023-10-03T20:23:54.795Z,15.80
2023-10-03T20:27:00.418Z,15.70
2023-10-03T20:30:07.627Z,15.60
2023-10-03T20:33:16.516Z,20.25
2023-10-03T20:36:23.587Z,15.85
2023-10-03T20:39:32.084Z,14.68
2023-10-03T20:42:37.739Z,12.15
2023-10-03T20:45:43.869Z,17.48
2023-10-03T20:48:50.545Z,13.27
2023-10-03T20:51:57.196Z,12.10
2023-10-03T20:55:02.706Z,12.52
2023-10-03T20:58:07.974Z,11.38
2023-10-03T21:01:14.373Z,10.98
2023-10-03T21:04:23.034Z,13.05
2023-10-03T21:07:29.508Z,14.43
2023-10-03T21:10:35.694Z,16.88
2023-10-03T21:13:42.318Z,10.93
2023-10-03T21:16:49.276Z,11.57
2023-10-03T21:19:58.596Z,15.30
2023-10-03T21:23:05.280Z,12.35
2023-10-03T21:26:14.168Z,11.70
2023-10-03T21:29:00.672Z,9.60
2023-10-03T21:31:50.351Z,13.93
2023-10-03T21:34:39.697Z,12.35
2023-10-03T21:37:26.612Z,11.80
2023-10-03T21:40:34.457Z,12.73
2023-10-03T21:43:39.972Z,14.50
2023-10-03T21:46:45.933Z,10.00
2023-10-03T21:49:51.865Z,9.40
2023-10-03T21:53:00.379Z,10.52
2023-10-03T21:56:07.042Z,12.77
2023-10-03T21:59:13.641Z,12.35
2023-10-03T22:02:20.356Z,7.78
2023-10-03T22:05:26.523Z,9.25
2023-10-03T22:08:32.205Z,11.50
2023-10-03T22:11:41.171Z,8.25
2023-10-03T22:14:46.901Z,9.90
2023-10-03T22:17:55.667Z,13.05
2023-10-03T22:21:01.463Z,13.05
2023-10-03T22:24:10.312Z,11.70
2023-10-03T22:27:16.676Z,11.35
2023-10-03T22:30:25.573Z,9.30
2023-10-03T22:33:32.460Z,9.48
2023-10-03T22:36:38.188Z,12.40
2023-10-03T22:39:43.967Z,9.52
2023-10-03T22:42:49.706Z,8.73
2023-10-03T22:45:55.682Z,7.88
2023-10-03T22:49:03.903Z,8.60
2023-10-03T22:52:10.988Z,12.60
2023-10-03T22:55:16.537Z,7.10
2023-10-03T22:58:25.430Z,9.77
2023-10-03T23:01:32.946Z,10.43
2023-10-03T23:04:38.545Z,8.32
2023-10-03T23:07:43.980Z,10.18
2023-10-03T23:10:52.643Z,7.55
2023-10-03T23:14:00.171Z,6.78
2023-10-03T23:17:09.065Z,11.02
2023-10-03T23:20:17.714Z,6.90
2023-10-03T23:23:24.224Z,6.68
2023-10-03T23:26:32.924Z,7.40
2023-10-03T23:29:39.162Z,8.82
2023-10-03T23:32:45.190Z,7.97
2023-10-03T23:35:50.667Z,9.85
2023-10-03T23:38:58.418Z,6.20
2023-10-03T23:42:04.017Z,10.65
2023-10-03T23:45:10.782Z,9.45
2023-10-03T23:48:19.704Z,10.27
2023-10-03T23:51:28.834Z,8.80
2023-10-03T23:54:36.522Z,7.95
2023-10-03T23:57:41.997Z,6.90
